sensor_id;sensor_type;location;lat;lon;timestamp;temperature;humidity
6964;DHT22;3522;50.856;7.278;2023-11-22T00:01:16;5.30;99.90
6964;DHT22;3522;50.856;7.278;2023-11-22T00:03:42;5.30;99.90
6964;DHT22;3522;50.856;7.278;2023-11-22T00:06:09;5.30;99.90
6964;DHT22;3522;50.856;7.278;2023-11-22T00:08:36;5.30;99.90
6964;DHT22;3522;50.856;7.278;2023-11-22T00:11:04;5.30;99.90
6964;DHT22;3522;50.856;7.278;2023-11-22T00:13:30;5.30;99.90
6964;DHT22;3522;50.856;7.278;2023-11-22T00:15:58;5.30;99.90
6964;DHT22;3522;50.856;7.278;2023-11-22T00:18:24;5.40;99.90
6964;DHT22;3522;50.856;7.278;2023-11-22T00:20:51;5.30;99.90
6964;DHT22;3522;50.856;7.278;2023-11-22T00:23:18;5.30;99.90
6964;DHT22;3522;50.856;7.278;2023-11-22T00:25:44;5.30;99.90
6964;DHT22;3522;50.856;7.278;2023-11-22T00:28:12;5.40;99.90
6964;DHT22;3522;50.856;7.278;2023-11-22T00:30:39;5.40;99.90
6964;DHT22;3522;50.856;7.278;2023-11-22T00:33:04;5.40;99.90
6964;DHT22;3522;50.856;7.278;2023-11-22T00:35:31;5.40;99.90
6964;DHT22;3522;50.856;7.278;2023-11-22T00:37:57;5.40;99.90
6964;DHT22;3522;50.856;7.278;2023-11-22T00:40:24;5.40;99.90
6964;DHT22;3522;50.856;7.278;2023-11-22T00:42:51;5.40;99.90
6964;DHT22;3522;50.856;7.278;2023-11-22T00:45:18;5.40;99.90
6964;DHT22;3522;50.856;7.278;2023-11-22T00:47:45;5.40;99.90
6964;DHT22;3522;50.856;7.278;2023-11-22T00:50:12;5.40;99.90
6964;DHT22;3522;50.856;7.278;2023-11-22T00:52:38;5.40;99.90
6964;DHT22;3522;50.856;7.278;2023-11-22T00:55:10;5.40;99.90
6964;DHT22;3522;50.856;7.278;2023-11-22T00:57:36;5.40;99.90
6964;DHT22;3522;50.856;7.278;2023-11-22T01:00:03;5.40;99.90
6964;DHT22;3522;50.856;7.278;2023-11-22T01:02:32;5.40;99.90
6964;DHT22;3522;50.856;7.278;2023-11-22T01:04:58;5.40;99.90
6964;DHT22;3522;50.856;7.278;2023-11-22T01:07:25;5.40;99.90
6964;DHT22;3522;50.856;7.278;2023-11-22T01:09:51;5.40;99.90
6964;DHT22;3522;50.856;7.278;2023-11-22T01:12:18;5.40;99.90
6964;DHT22;3522;50.856;7.278;2023-11-22T01:14:45;5.40;99.90
6964;DHT22;3522;50.856;7.278;2023-11-22T01:17:11;5.40;99.90
6964;DHT22;3522;50.856;7.278;2023-11-22T01:19:39;5.40;99.90
6964;DHT22;3522;50.856;7.278;2023-11-22T01:22:06;5.40;99.90
6964;DHT22;3522;50.856;7.278;2023-11-22T01:24:32;5.40;99.90
6964;DHT22;3522;50.856;7.278;2023-11-22T01:26:59;5.40;99.90
6964;DHT22;3522;50.856;7.278;2023-11-22T01:29:25;5.40;99.90
6964;DHT22;3522;50.856;7.278;2023-11-22T01:31:54;5.40;99.90
6964;DHT22;3522;50.856;7.278;2023-11-22T01:34:21;5.40;99.90
6964;DHT22;3522;50.856;7.278;2023-11-22T01:36:50;5.40;99.90
6964;DHT22;3522;50.856;7.278;2023-11-22T01:39:17;5.40;99.90
6964;DHT22;3522;50.856;7.278;2023-11-22T01:41:44;5.40;99.90
6964;DHT22;3522;50.856;7.278;2023-11-22T01:44:10;5.40;99.90
6964;DHT22;3522;50.856;7.278;2023-11-22T01:46:37;5.40;99.90
6964;DHT22;3522;50.856;7.278;2023-11-22T01:49:04;5.40;99.90
6964;DHT22;3522;50.856;7.278;2023-11-22T01:51:31;5.40;99.90
6964;DHT22;3522;50.856;7.278;2023-11-22T01:53:59;5.40;99.90
6964;DHT22;3522;50.856;7.278;2023-11-22T01:56:26;5.30;99.90
6964;DHT22;3522;50.856;7.278;2023-11-22T01:58:54;5.30;99.90
6964;DHT22;3522;50.856;7.278;2023-11-22T02:01:20;5.30;99.90
6964;DHT22;3522;50.856;7.278;2023-11-22T02:03:47;5.30;99.90
6964;DHT22;3522;50.856;7.278;2023-11-22T02:06:15;5.30;99.90
6964;DHT22;3522;50.856;7.278;2023-11-22T02:08:42;5.30;99.90
6964;DHT22;3522;50.856;7.278;2023-11-22T02:11:10;5.30;99.90
6964;DHT22;3522;50.856;7.278;2023-11-22T02:13:37;5.30;99.90
6964;DHT22;3522;50.856;7.278;2023-11-22T02:16:04;5.30;99.90
6964;DHT22;3522;50.856;7.278;2023-11-22T02:18:30;5.30;99.90
6964;DHT22;3522;50.856;7.278;2023-11-22T02:20:57;5.30;99.90
6964;DHT22;3522;50.856;7.278;2023-11-22T02:23:25;5.30;99.90
6964;DHT22;3522;50.856;7.278;2023-11-22T02:25:51;5.30;99.90
6964;DHT22;3522;50.856;7.278;2023-11-22T02:28:18;5.30;99.90
6964;DHT22;3522;50.856;7.278;2023-11-22T02:30:45;5.30;99.90
6964;DHT22;3522;50.856;7.278;2023-11-22T02:33:11;5.30;99.90
6964;DHT22;3522;50.856;7.278;2023-11-22T02:35:38;5.30;99.90
6964;DHT22;3522;50.856;7.278;2023-11-22T02:38:06;5.30;99.90
6964;DHT22;3522;50.856;7.278;2023-11-22T02:40:34;5.30;99.90
6964;DHT22;3522;50.856;7.278;2023-11-22T02:43:00;5.30;99.90
6964;DHT22;3522;50.856;7.278;2023-11-22T02:45:30;5.30;99.90
6964;DHT22;3522;50.856;7.278;2023-11-22T02:47:57;5.30;99.90
6964;DHT22;3522;50.856;7.278;2023-11-22T02:50:24;5.30;99.90
6964;DHT22;3522;50.856;7.278;2023-11-22T02:52:52;5.30;99.90
6964;DHT22;3522;50.856;7.278;2023-11-22T02:55:18;5.30;99.90
6964;DHT22;3522;50.856;7.278;2023-11-22T02:57:47;5.30;99.90
6964;DHT22;3522;50.856;7.278;2023-11-22T03:00:13;5.30;99.90
6964;DHT22;3522;50.856;7.278;2023-11-22T03:02:40;5.30;99.90
6964;DHT22;3522;50.856;7.278;2023-11-22T03:05:07;5.30;99.90
6964;DHT22;3522;50.856;7.278;2023-11-22T03:07:34;5.30;99.90
6964;DHT22;3522;50.856;7.278;2023-11-22T03:10:01;5.30;99.90
6964;DHT22;3522;50.856;7.278;2023-11-22T03:12:27;5.30;99.90
6964;DHT22;3522;50.856;7.278;2023-11-22T03:15:13;5.30;99.90
6964;DHT22;3522;50.856;7.278;2023-11-22T03:17:39;5.30;99.90
6964;DHT22;3522;50.856;7.278;2023-11-22T03:20:07;5.30;99.90
6964;DHT22;3522;50.856;7.278;2023-11-22T03:22:36;5.30;99.90
6964;DHT22;3522;50.856;7.278;2023-11-22T03:25:03;5.30;99.90
6964;DHT22;3522;50.856;7.278;2023-11-22T03:27:30;5.30;99.90
6964;DHT22;3522;50.856;7.278;2023-11-22T03:29:56;5.30;99.90
6964;DHT22;3522;50.856;7.278;2023-11-22T03:32:25;5.30;99.90
6964;DHT22;3522;50.856;7.278;2023-11-22T03:34:51;5.30;99.90
6964;DHT22;3522;50.856;7.278;2023-11-22T03:37:18;5.30;99.90
6964;DHT22;3522;50.856;7.278;2023-11-22T03:39:44;5.30;99.90
6964;DHT22;3522;50.856;7.278;2023-11-22T03:42:14;5.30;99.90
6964;DHT22;3522;50.856;7.278;2023-11-22T03:44:41;5.20;99.90
6964;DHT22;3522;50.856;7.278;2023-11-22T03:47:09;5.20;99.90
6964;DHT22;3522;50.856;7.278;2023-11-22T03:49:37;5.20;99.90
6964;DHT22;3522;50.856;7.278;2023-11-22T03:52:04;5.20;99.90
6964;DHT22;3522;50.856;7.278;2023-11-22T03:54:31;5.20;99.90
6964;DHT22;3522;50.856;7.278;2023-11-22T03:56:58;5.20;99.90
6964;DHT22;3522;50.856;7.278;2023-11-22T03:59:25;5.20;99.90
6964;DHT22;3522;50.856;7.278;2023-11-22T04:01:51;5.20;99.90
6964;DHT22;3522;50.856;7.278;2023-11-22T04:04:19;5.20;99.90
6964;DHT22;3522;50.856;7.278;2023-11-22T04:06:47;5.20;99.90
6964;DHT22;3522;50.856;7.278;2023-11-22T04:09:14;5.20;99.90
6964;DHT22;3522;50.856;7.278;2023-11-22T04:11:42;5.20;99.90
6964;DHT22;3522;50.856;7.278;2023-11-22T04:14:09;5.20;99.90
6964;DHT22;3522;50.856;7.278;2023-11-22T04:16:35;5.10;99.90
6964;DHT22;3522;50.856;7.278;2023-11-22T04:19:02;5.00;99.90
6964;DHT22;3522;50.856;7.278;2023-11-22T04:21:28;5.00;99.90
6964;DHT22;3522;50.856;7.278;2023-11-22T04:23:56;4.90;99.90
6964;DHT22;3522;50.856;7.278;2023-11-22T04:26:23;4.80;99.90
6964;DHT22;3522;50.856;7.278;2023-11-22T04:28:50;4.70;99.90
6964;DHT22;3522;50.856;7.278;2023-11-22T04:31:16;4.70;99.90
6964;DHT22;3522;50.856;7.278;2023-11-22T04:33:43;4.60;99.90
6964;DHT22;3522;50.856;7.278;2023-11-22T04:36:09;4.60;99.90
6964;DHT22;3522;50.856;7.278;2023-11-22T04:38:37;4.50;99.90
6964;DHT22;3522;50.856;7.278;2023-11-22T04:41:05;4.50;99.90
6964;DHT22;3522;50.856;7.278;2023-11-22T04:43:31;4.50;99.90
6964;DHT22;3522;50.856;7.278;2023-11-22T04:45:58;4.50;99.90
6964;DHT22;3522;50.856;7.278;2023-11-22T04:48:24;4.50;99.90
6964;DHT22;3522;50.856;7.278;2023-11-22T04:50:51;4.50;99.90
6964;DHT22;3522;50.856;7.278;2023-11-22T04:53:18;4.50;99.90
6964;DHT22;3522;50.856;7.278;2023-11-22T04:55:45;4.40;99.90
6964;DHT22;3522;50.856;7.278;2023-11-22T04:58:13;4.40;99.90
6964;DHT22;3522;50.856;7.278;2023-11-22T05:00:39;4.40;99.90
6964;DHT22;3522;50.856;7.278;2023-11-22T05:03:06;4.40;99.90
6964;DHT22;3522;50.856;7.278;2023-11-22T05:05:33;4.40;99.90
6964;DHT22;3522;50.856;7.278;2023-11-22T05:07:59;4.30;99.90
6964;DHT22;3522;50.856;7.278;2023-11-22T05:10:26;4.30;99.90
6964;DHT22;3522;50.856;7.278;2023-11-22T05:12:52;4.30;99.90
6964;DHT22;3522;50.856;7.278;2023-11-22T05:15:26;4.30;99.90
6964;DHT22;3522;50.856;7.278;2023-11-22T05:17:52;4.20;99.90
6964;DHT22;3522;50.856;7.278;2023-11-22T05:20:19;4.20;99.90
6964;DHT22;3522;50.856;7.278;2023-11-22T05:22:46;4.10;99.90
6964;DHT22;3522;50.856;7.278;2023-11-22T05:25:12;4.10;99.90
6964;DHT22;3522;50.856;7.278;2023-11-22T05:27:39;4.10;99.90
6964;DHT22;3522;50.856;7.278;2023-11-22T05:30:06;4.00;99.90
6964;DHT22;3522;50.856;7.278;2023-11-22T05:32:34;4.00;99.90
6964;DHT22;3522;50.856;7.278;2023-11-22T05:35:01;3.90;99.90
6964;DHT22;3522;50.856;7.278;2023-11-22T05:37:31;3.80;99.90
6964;DHT22;3522;50.856;7.278;2023-11-22T05:39:57;3.80;99.90
6964;DHT22;3522;50.856;7.278;2023-11-22T05:42:24;3.70;99.90
6964;DHT22;3522;50.856;7.278;2023-11-22T05:44:51;3.70;99.90
6964;DHT22;3522;50.856;7.278;2023-11-22T05:47:18;3.70;99.90
6964;DHT22;3522;50.856;7.278;2023-11-22T05:49:46;3.60;99.90
6964;DHT22;3522;50.856;7.278;2023-11-22T05:52:12;3.50;99.90
6964;DHT22;3522;50.856;7.278;2023-11-22T05:54:39;3.50;99.90
6964;DHT22;3522;50.856;7.278;2023-11-22T05:57:05;3.50;99.90
6964;DHT22;3522;50.856;7.278;2023-11-22T05:59:32;3.50;99.90
6964;DHT22;3522;50.856;7.278;2023-11-22T06:01:59;3.50;99.90
6964;DHT22;3522;50.856;7.278;2023-11-22T06:04:25;3.50;99.90
6964;DHT22;3522;50.856;7.278;2023-11-22T06:06:53;3.50;99.90
6964;DHT22;3522;50.856;7.278;2023-11-22T06:09:20;3.40;99.90
6964;DHT22;3522;50.856;7.278;2023-11-22T06:11:48;3.40;99.90
6964;DHT22;3522;50.856;7.278;2023-11-22T06:14:14;3.40;99.90
6964;DHT22;3522;50.856;7.278;2023-11-22T06:16:41;3.30;99.90
6964;DHT22;3522;50.856;7.278;2023-11-22T06:19:08;3.30;99.90
6964;DHT22;3522;50.856;7.278;2023-11-22T06:21:34;3.20;99.90
6964;DHT22;3522;50.856;7.278;2023-11-22T06:24:05;3.20;99.90
6964;DHT22;3522;50.856;7.278;2023-11-22T06:26:34;3.10;99.90
6964;DHT22;3522;50.856;7.278;2023-11-22T06:29:00;3.10;99.90
6964;DHT22;3522;50.856;7.278;2023-11-22T06:31:28;3.10;99.90
6964;DHT22;3522;50.856;7.278;2023-11-22T06:33:54;3.10;99.90
6964;DHT22;3522;50.856;7.278;2023-11-22T06:36:21;3.10;99.90
6964;DHT22;3522;50.856;7.278;2023-11-22T06:38:48;3.10;99.90
6964;DHT22;3522;50.856;7.278;2023-11-22T06:41:16;3.10;99.90
6964;DHT22;3522;50.856;7.278;2023-11-22T06:43:43;3.20;99.90
6964;DHT22;3522;50.856;7.278;2023-11-22T06:46:10;3.10;99.90
6964;DHT22;3522;50.856;7.278;2023-11-22T06:48:36;3.10;99.90
6964;DHT22;3522;50.856;7.278;2023-11-22T06:51:03;3.10;99.90
6964;DHT22;3522;50.856;7.278;2023-11-22T06:53:30;3.10;99.90
6964;DHT22;3522;50.856;7.278;2023-11-22T06:55:57;3.10;99.90
6964;DHT22;3522;50.856;7.278;2023-11-22T06:58:25;3.10;99.90
6964;DHT22;3522;50.856;7.278;2023-11-22T07:00:51;3.00;99.90
6964;DHT22;3522;50.856;7.278;2023-11-22T07:03:18;3.00;99.90
6964;DHT22;3522;50.856;7.278;2023-11-22T07:05:45;3.00;99.90
6964;DHT22;3522;50.856;7.278;2023-11-22T07:08:12;3.00;99.90
6964;DHT22;3522;50.856;7.278;2023-11-22T07:10:41;3.00;99.90
6964;DHT22;3522;50.856;7.278;2023-11-22T07:13:10;3.00;99.90
6964;DHT22;3522;50.856;7.278;2023-11-22T07:15:39;2.90;99.90
6964;DHT22;3522;50.856;7.278;2023-11-22T07:18:06;2.80;99.90
6964;DHT22;3522;50.856;7.278;2023-11-22T07:20:33;2.80;99.90
6964;DHT22;3522;50.856;7.278;2023-11-22T07:22:59;2.90;99.90
6964;DHT22;3522;50.856;7.278;2023-11-22T07:25:26;2.90;99.90
6964;DHT22;3522;50.856;7.278;2023-11-22T07:27:52;2.90;99.90
6964;DHT22;3522;50.856;7.278;2023-11-22T07:30:19;3.00;99.90
6964;DHT22;3522;50.856;7.278;2023-11-22T07:32:50;3.00;99.90
6964;DHT22;3522;50.856;7.278;2023-11-22T07:35:17;3.00;99.90
6964;DHT22;3522;50.856;7.278;2023-11-22T07:37:45;2.90;99.90
6964;DHT22;3522;50.856;7.278;2023-11-22T07:40:13;2.90;99.90
6964;DHT22;3522;50.856;7.278;2023-11-22T07:42:40;2.90;99.90
6964;DHT22;3522;50.856;7.278;2023-11-22T07:45:07;2.90;99.90
6964;DHT22;3522;50.856;7.278;2023-11-22T07:47:36;2.90;99.90
6964;DHT22;3522;50.856;7.278;2023-11-22T07:50:07;2.90;99.90
6964;DHT22;3522;50.856;7.278;2023-11-22T07:52:34;3.00;99.90
6964;DHT22;3522;50.856;7.278;2023-11-22T07:55:01;3.00;99.90
6964;DHT22;3522;50.856;7.278;2023-11-22T07:57:28;3.10;99.90
6964;DHT22;3522;50.856;7.278;2023-11-22T07:59:55;3.10;99.90
6964;DHT22;3522;50.856;7.278;2023-11-22T08:02:22;3.10;99.90
6964;DHT22;3522;50.856;7.278;2023-11-22T08:04:48;3.10;99.90
6964;DHT22;3522;50.856;7.278;2023-11-22T08:07:17;3.10;99.90
6964;DHT22;3522;50.856;7.278;2023-11-22T08:09:45;3.10;99.90
6964;DHT22;3522;50.856;7.278;2023-11-22T08:12:12;3.20;99.90
6964;DHT22;3522;50.856;7.278;2023-11-22T08:14:38;3.20;99.90
6964;DHT22;3522;50.856;7.278;2023-11-22T08:17:05;3.20;99.90
6964;DHT22;3522;50.856;7.278;2023-11-22T08:19:32;3.20;99.90
6964;DHT22;3522;50.856;7.278;2023-11-22T08:21:58;3.20;99.90
6964;DHT22;3522;50.856;7.278;2023-11-22T08:24:26;3.20;99.90
6964;DHT22;3522;50.856;7.278;2023-11-22T08:26:53;3.20;99.90
6964;DHT22;3522;50.856;7.278;2023-11-22T08:29:19;3.20;99.90
6964;DHT22;3522;50.856;7.278;2023-11-22T08:31:47;3.30;99.90
6964;DHT22;3522;50.856;7.278;2023-11-22T08:34:16;3.30;99.90
6964;DHT22;3522;50.856;7.278;2023-11-22T08:36:42;3.30;99.90
6964;DHT22;3522;50.856;7.278;2023-11-22T08:39:09;3.40;99.90
6964;DHT22;3522;50.856;7.278;2023-11-22T08:41:37;3.40;99.90
6964;DHT22;3522;50.856;7.278;2023-11-22T08:44:04;3.40;99.90
6964;DHT22;3522;50.856;7.278;2023-11-22T08:46:31;3.40;99.90
6964;DHT22;3522;50.856;7.278;2023-11-22T08:48:58;3.40;99.90
6964;DHT22;3522;50.856;7.278;2023-11-22T08:51:24;3.40;99.90
6964;DHT22;3522;50.856;7.278;2023-11-22T08:53:52;3.40;99.90
6964;DHT22;3522;50.856;7.278;2023-11-22T08:56:18;3.50;99.90
6964;DHT22;3522;50.856;7.278;2023-11-22T08:58:47;3.50;99.90
6964;DHT22;3522;50.856;7.278;2023-11-22T09:01:13;3.60;99.90
6964;DHT22;3522;50.856;7.278;2023-11-22T09:03:40;3.70;99.90
6964;DHT22;3522;50.856;7.278;2023-11-22T09:06:08;3.90;99.90
6964;DHT22;3522;50.856;7.278;2023-11-22T09:08:35;4.00;99.90
6964;DHT22;3522;50.856;7.278;2023-11-22T09:11:02;4.10;99.90
6964;DHT22;3522;50.856;7.278;2023-11-22T09:13:31;4.30;99.90
6964;DHT22;3522;50.856;7.278;2023-11-22T09:15:59;4.40;99.90
6964;DHT22;3522;50.856;7.278;2023-11-22T09:18:25;4.50;99.90
6964;DHT22;3522;50.856;7.278;2023-11-22T09:20:52;4.60;99.90
6964;DHT22;3522;50.856;7.278;2023-11-22T09:23:19;4.70;99.90
6964;DHT22;3522;50.856;7.278;2023-11-22T09:25:46;4.80;99.90
6964;DHT22;3522;50.856;7.278;2023-11-22T09:28:12;5.00;99.90
6964;DHT22;3522;50.856;7.278;2023-11-22T09:30:41;5.10;99.90
6964;DHT22;3522;50.856;7.278;2023-11-22T09:33:10;5.20;99.90
6964;DHT22;3522;50.856;7.278;2023-11-22T09:35:38;5.30;99.90
6964;DHT22;3522;50.856;7.278;2023-11-22T09:38:06;5.40;99.90
6964;DHT22;3522;50.856;7.278;2023-11-22T09:40:35;5.50;99.90
6964;DHT22;3522;50.856;7.278;2023-11-22T09:43:02;5.70;99.90
6964;DHT22;3522;50.856;7.278;2023-11-22T09:45:29;5.90;99.90
6964;DHT22;3522;50.856;7.278;2023-11-22T09:47:55;6.20;99.90
6964;DHT22;3522;50.856;7.278;2023-11-22T09:50:26;6.40;99.90
6964;DHT22;3522;50.856;7.278;2023-11-22T09:52:53;6.50;99.90
6964;DHT22;3522;50.856;7.278;2023-11-22T09:55:22;6.50;99.90
6964;DHT22;3522;50.856;7.278;2023-11-22T09:57:51;6.40;99.90
6964;DHT22;3522;50.856;7.278;2023-11-22T10:00:19;6.40;99.90
6964;DHT22;3522;50.856;7.278;2023-11-22T10:02:46;6.30;99.90
6964;DHT22;3522;50.856;7.278;2023-11-22T10:05:13;6.30;99.90
6964;DHT22;3522;50.856;7.278;2023-11-22T10:07:41;6.30;99.90
6964;DHT22;3522;50.856;7.278;2023-11-22T10:10:08;6.40;99.90
6964;DHT22;3522;50.856;7.278;2023-11-22T10:12:36;6.40;99.90
6964;DHT22;3522;50.856;7.278;2023-11-22T10:15:11;6.40;99.90
6964;DHT22;3522;50.856;7.278;2023-11-22T10:17:38;6.40;99.90
6964;DHT22;3522;50.856;7.278;2023-11-22T10:20:05;6.30;99.90
6964;DHT22;3522;50.856;7.278;2023-11-22T10:22:44;6.30;99.90
6964;DHT22;3522;50.856;7.278;2023-11-22T10:25:11;6.30;99.90
6964;DHT22;3522;50.856;7.278;2023-11-22T10:27:38;6.40;99.90
6964;DHT22;3522;50.856;7.278;2023-11-22T10:30:06;6.50;99.90
6964;DHT22;3522;50.856;7.278;2023-11-22T10:32:36;6.60;99.90
6964;DHT22;3522;50.856;7.278;2023-11-22T10:35:03;6.50;99.90
6964;DHT22;3522;50.856;7.278;2023-11-22T10:37:30;6.50;99.90
6964;DHT22;3522;50.856;7.278;2023-11-22T10:39:58;6.60;99.90
6964;DHT22;3522;50.856;7.278;2023-11-22T10:42:25;6.80;99.90
6964;DHT22;3522;50.856;7.278;2023-11-22T10:44:53;7.00;99.90
6964;DHT22;3522;50.856;7.278;2023-11-22T10:47:22;7.00;99.90
6964;DHT22;3522;50.856;7.278;2023-11-22T10:49:49;7.00;99.90
6964;DHT22;3522;50.856;7.278;2023-11-22T10:52:16;7.00;99.90
6964;DHT22;3522;50.856;7.278;2023-11-22T10:54:44;6.90;99.90
6964;DHT22;3522;50.856;7.278;2023-11-22T10:57:17;6.80;99.90
6964;DHT22;3522;50.856;7.278;2023-11-22T10:59:45;6.80;99.90
6964;DHT22;3522;50.856;7.278;2023-11-22T11:02:15;6.80;99.90
6964;DHT22;3522;50.856;7.278;2023-11-22T11:04:42;6.90;99.90
6964;DHT22;3522;50.856;7.278;2023-11-22T11:07:11;7.00;99.90
6964;DHT22;3522;50.856;7.278;2023-11-22T11:09:40;7.10;99.90
6964;DHT22;3522;50.856;7.278;2023-11-22T11:12:07;7.10;99.90
6964;DHT22;3522;50.856;7.278;2023-11-22T11:14:36;7.10;99.90
6964;DHT22;3522;50.856;7.278;2023-11-22T11:17:02;7.10;99.90
6964;DHT22;3522;50.856;7.278;2023-11-22T11:19:30;7.30;99.90
6964;DHT22;3522;50.856;7.278;2023-11-22T11:21:57;7.50;99.90
6964;DHT22;3522;50.856;7.278;2023-11-22T11:24:23;7.60;99.90
6964;DHT22;3522;50.856;7.278;2023-11-22T11:26:50;7.60;99.90
6964;DHT22;3522;50.856;7.278;2023-11-22T11:32:03;7.50;99.90
6964;DHT22;3522;50.856;7.278;2023-11-22T11:34:31;7.40;99.90
6964;DHT22;3522;50.856;7.278;2023-11-22T11:36:59;7.30;99.90
6964;DHT22;3522;50.856;7.278;2023-11-22T11:39:27;7.10;99.90
6964;DHT22;3522;50.856;7.278;2023-11-22T11:42:08;6.90;99.90
6964;DHT22;3522;50.856;7.278;2023-11-22T11:44:35;6.70;99.90
6964;DHT22;3522;50.856;7.278;2023-11-22T11:47:09;6.70;99.90
6964;DHT22;3522;50.856;7.278;2023-11-22T11:49:36;6.70;99.90
6964;DHT22;3522;50.856;7.278;2023-11-22T11:52:04;6.70;99.90
6964;DHT22;3522;50.856;7.278;2023-11-22T11:54:30;6.70;99.90
6964;DHT22;3522;50.856;7.278;2023-11-22T11:56:58;6.80;99.90
6964;DHT22;3522;50.856;7.278;2023-11-22T11:59:25;6.90;99.90
6964;DHT22;3522;50.856;7.278;2023-11-22T12:01:52;7.10;99.90
6964;DHT22;3522;50.856;7.278;2023-11-22T12:04:23;7.10;99.90
6964;DHT22;3522;50.856;7.278;2023-11-22T12:06:50;7.10;99.90
6964;DHT22;3522;50.856;7.278;2023-11-22T12:09:21;7.30;99.90
6964;DHT22;3522;50.856;7.278;2023-11-22T12:11:49;7.20;99.90
6964;DHT22;3522;50.856;7.278;2023-11-22T12:14:16;7.10;99.90
6964;DHT22;3522;50.856;7.278;2023-11-22T12:16:44;7.10;99.90
6964;DHT22;3522;50.856;7.278;2023-11-22T12:19:20;7.10;99.90
6964;DHT22;3522;50.856;7.278;2023-11-22T12:21:48;7.10;99.90
6964;DHT22;3522;50.856;7.278;2023-11-22T12:24:15;7.20;99.90
6964;DHT22;3522;50.856;7.278;2023-11-22T12:26:44;7.20;99.90
6964;DHT22;3522;50.856;7.278;2023-11-22T12:29:11;7.00;99.90
6964;DHT22;3522;50.856;7.278;2023-11-22T12:31:43;7.10;99.90
6964;DHT22;3522;50.856;7.278;2023-11-22T12:34:11;7.10;99.90
6964;DHT22;3522;50.856;7.278;2023-11-22T12:36:39;7.20;99.90
6964;DHT22;3522;50.856;7.278;2023-11-22T12:39:08;7.20;99.90
6964;DHT22;3522;50.856;7.278;2023-11-22T12:41:41;7.20;99.90
6964;DHT22;3522;50.856;7.278;2023-11-22T12:44:07;7.00;99.90
6964;DHT22;3522;50.856;7.278;2023-11-22T12:46:47;6.90;99.90
6964;DHT22;3522;50.856;7.278;2023-11-22T12:49:17;7.10;99.90
6964;DHT22;3522;50.856;7.278;2023-11-22T12:51:48;7.20;99.90
6964;DHT22;3522;50.856;7.278;2023-11-22T12:54:16;7.30;99.90
6964;DHT22;3522;50.856;7.278;2023-11-22T12:56:42;7.30;99.90
6964;DHT22;3522;50.856;7.278;2023-11-22T12:59:10;7.50;99.90
6964;DHT22;3522;50.856;7.278;2023-11-22T13:01:37;7.50;99.90
6964;DHT22;3522;50.856;7.278;2023-11-22T13:04:04;7.40;99.80
6964;DHT22;3522;50.856;7.278;2023-11-22T13:06:30;7.40;99.90
6964;DHT22;3522;50.856;7.278;2023-11-22T13:08:59;7.40;99.90
6964;DHT22;3522;50.856;7.278;2023-11-22T13:11:27;7.50;99.90
6964;DHT22;3522;50.856;7.278;2023-11-22T13:13:53;7.40;99.90
6964;DHT22;3522;50.856;7.278;2023-11-22T13:16:20;7.30;99.90
6964;DHT22;3522;50.856;7.278;2023-11-22T13:18:46;7.10;99.80
6964;DHT22;3522;50.856;7.278;2023-11-22T13:21:14;7.20;99.90
6964;DHT22;3522;50.856;7.278;2023-11-22T13:23:40;7.20;99.90
6964;DHT22;3522;50.856;7.278;2023-11-22T13:26:07;7.20;99.80
6964;DHT22;3522;50.856;7.278;2023-11-22T13:28:37;7.10;99.90
6964;DHT22;3522;50.856;7.278;2023-11-22T13:31:03;7.00;99.90
6964;DHT22;3522;50.856;7.278;2023-11-22T13:33:30;7.00;99.80
6964;DHT22;3522;50.856;7.278;2023-11-22T13:35:56;7.10;99.90
6964;DHT22;3522;50.856;7.278;2023-11-22T13:38:23;7.10;99.90
6964;DHT22;3522;50.856;7.278;2023-11-22T13:40:50;7.20;99.90
6964;DHT22;3522;50.856;7.278;2023-11-22T13:43:16;7.20;99.90
6964;DHT22;3522;50.856;7.278;2023-11-22T13:45:45;7.10;99.90
6964;DHT22;3522;50.856;7.278;2023-11-22T13:48:11;7.00;99.90
6964;DHT22;3522;50.856;7.278;2023-11-22T13:50:38;6.80;99.90
6964;DHT22;3522;50.856;7.278;2023-11-22T13:53:05;6.60;99.90
6964;DHT22;3522;50.856;7.278;2023-11-22T13:55:31;6.60;99.90
6964;DHT22;3522;50.856;7.278;2023-11-22T13:57:58;6.60;99.90
6964;DHT22;3522;50.856;7.278;2023-11-22T14:00:25;6.60;99.90
6964;DHT22;3522;50.856;7.278;2023-11-22T14:02:56;6.60;99.90
6964;DHT22;3522;50.856;7.278;2023-11-22T14:05:22;6.60;99.90
6964;DHT22;3522;50.856;7.278;2023-11-22T14:07:49;6.50;99.90
6964;DHT22;3522;50.856;7.278;2023-11-22T14:10:17;6.50;99.90
6964;DHT22;3522;50.856;7.278;2023-11-22T14:12:44;6.50;99.90
6964;DHT22;3522;50.856;7.278;2023-11-22T14:15:11;6.50;99.90
6964;DHT22;3522;50.856;7.278;2023-11-22T14:17:38;6.50;99.90
6964;DHT22;3522;50.856;7.278;2023-11-22T14:20:08;6.40;99.90
6964;DHT22;3522;50.856;7.278;2023-11-22T14:22:35;6.50;99.90
6964;DHT22;3522;50.856;7.278;2023-11-22T14:25:02;6.50;99.90
6964;DHT22;3522;50.856;7.278;2023-11-22T14:27:31;6.60;99.90
6964;DHT22;3522;50.856;7.278;2023-11-22T14:29:59;6.40;99.90
6964;DHT22;3522;50.856;7.278;2023-11-22T14:32:27;6.40;99.90
6964;DHT22;3522;50.856;7.278;2023-11-22T14:34:55;6.20;99.90
6964;DHT22;3522;50.856;7.278;2023-11-22T14:37:23;6.20;99.90
6964;DHT22;3522;50.856;7.278;2023-11-22T14:39:49;6.30;99.90
6964;DHT22;3522;50.856;7.278;2023-11-22T14:42:16;6.20;99.90
6964;DHT22;3522;50.856;7.278;2023-11-22T14:44:43;6.20;99.90
6964;DHT22;3522;50.856;7.278;2023-11-22T14:47:09;6.20;99.90
6964;DHT22;3522;50.856;7.278;2023-11-22T14:49:42;6.10;99.90
6964;DHT22;3522;50.856;7.278;2023-11-22T14:52:09;6.10;99.90
6964;DHT22;3522;50.856;7.278;2023-11-22T14:54:37;6.10;99.90
6964;DHT22;3522;50.856;7.278;2023-11-22T14:57:04;6.10;99.90
6964;DHT22;3522;50.856;7.278;2023-11-22T14:59:32;6.00;99.90
6964;DHT22;3522;50.856;7.278;2023-11-22T15:01:59;5.90;99.90
6964;DHT22;3522;50.856;7.278;2023-11-22T15:04:27;5.90;99.90
6964;DHT22;3522;50.856;7.278;2023-11-22T15:06:54;5.80;99.90
6964;DHT22;3522;50.856;7.278;2023-11-22T15:09:21;5.80;99.90
6964;DHT22;3522;50.856;7.278;2023-11-22T15:11:50;5.80;99.90
6964;DHT22;3522;50.856;7.278;2023-11-22T15:14:16;5.70;99.90
6964;DHT22;3522;50.856;7.278;2023-11-22T15:16:43;5.70;99.90
6964;DHT22;3522;50.856;7.278;2023-11-22T15:19:09;5.70;99.90
6964;DHT22;3522;50.856;7.278;2023-11-22T15:21:36;5.70;99.90
6964;DHT22;3522;50.856;7.278;2023-11-22T15:24:03;5.70;99.90
6964;DHT22;3522;50.856;7.278;2023-11-22T15:26:30;5.70;99.90
6964;DHT22;3522;50.856;7.278;2023-11-22T15:28:59;5.70;99.90
6964;DHT22;3522;50.856;7.278;2023-11-22T15:31:25;5.70;99.90
6964;DHT22;3522;50.856;7.278;2023-11-22T15:33:53;5.70;99.90
6964;DHT22;3522;50.856;7.278;2023-11-22T15:36:20;5.70;99.90
6964;DHT22;3522;50.856;7.278;2023-11-22T15:38:46;5.60;99.90
6964;DHT22;3522;50.856;7.278;2023-11-22T15:41:14;5.60;99.90
6964;DHT22;3522;50.856;7.278;2023-11-22T15:43:40;5.50;99.90
6964;DHT22;3522;50.856;7.278;2023-11-22T15:46:11;5.50;99.90
6964;DHT22;3522;50.856;7.278;2023-11-22T15:48:38;5.50;99.90
6964;DHT22;3522;50.856;7.278;2023-11-22T15:51:04;5.50;99.90
6964;DHT22;3522;50.856;7.278;2023-11-22T15:53:31;5.50;99.90
6964;DHT22;3522;50.856;7.278;2023-11-22T15:55:58;5.50;99.90
6964;DHT22;3522;50.856;7.278;2023-11-22T15:58:25;5.40;99.90
6964;DHT22;3522;50.856;7.278;2023-11-22T16:00:51;5.40;99.90
6964;DHT22;3522;50.856;7.278;2023-11-22T16:03:19;5.40;99.90
6964;DHT22;3522;50.856;7.278;2023-11-22T16:05:47;5.40;99.90
6964;DHT22;3522;50.856;7.278;2023-11-22T16:08:14;5.40;99.90
6964;DHT22;3522;50.856;7.278;2023-11-22T16:10:41;5.40;99.90
6964;DHT22;3522;50.856;7.278;2023-11-22T16:13:07;5.40;99.90
6964;DHT22;3522;50.856;7.278;2023-11-22T16:15:34;5.40;99.90
6964;DHT22;3522;50.856;7.278;2023-11-22T16:18:01;5.40;99.90
6964;DHT22;3522;50.856;7.278;2023-11-22T16:20:29;5.40;99.90